Time;durP1;ratioP1;P1;durP2;ratioP2;P2;SDS_P1;SDS_P2;PMS_P1;PMS_P2;Temp;Humidity;BMP_temperature;BMP_pressure;BME280_temperature;BME280_humidity;BME280_pressure;Samples;Min_cycle;Max_cycle;Signal;HPM_P1;HPM_P2
2020/12/14 00:00:59;;;;;;;1.27;0.98;;;21.10;46.50;;;;;;5033806;28;20514;-42
2020/12/14 00:03:25;;;;;;;1.75;0.88;;;21.10;46.40;;;;;;5033057;28;20049;-43
2020/12/14 00:05:51;;;;;;;1.35;0.85;;;21.10;46.40;;;;;;5033766;28;20104;-43
2020/12/14 00:08:16;;;;;;;1.50;0.93;;;21.10;46.30;;;;;;5033064;28;20021;-41
2020/12/14 00:10:42;;;;;;;0.93;0.80;;;21.00;46.20;;;;;;5033660;28;20033;-41
2020/12/14 00:13:07;;;;;;;0.90;0.80;;;21.10;46.30;;;;;;5033111;28;20037;-62
2020/12/14 00:15:33;;;;;;;1.98;0.77;;;21.00;46.20;;;;;;5033226;28;20021;-41
2020/12/14 00:17:59;;;;;;;1.00;0.80;;;21.00;46.20;;;;;;5033862;28;20490;-42
2020/12/14 00:20:24;;;;;;;1.75;1.15;;;21.00;46.10;;;;;;5033397;28;20029;-52
2020/12/14 00:22:50;;;;;;;1.77;0.82;;;21.00;46.10;;;;;;5033666;28;20033;-41
2020/12/14 00:25:16;;;;;;;1.35;1.10;;;21.00;46.10;;;;;;5033050;28;20014;-42
2020/12/14 00:27:41;;;;;;;1.58;1.02;;;21.00;46.10;;;;;;5032525;28;20021;-43
2020/12/14 00:30:08;;;;;;;1.20;1.00;;;20.90;46.00;;;;;;5032845;28;20060;-61
2020/12/14 00:32:33;;;;;;;1.95;1.00;;;20.90;46.00;;;;;;5032796;28;20037;-47
2020/12/14 00:34:59;;;;;;;1.00;0.82;;;20.90;46.00;;;;;;5033589;28;20379;-41
2020/12/14 00:37:24;;;;;;;3.42;1.00;;;20.90;46.00;;;;;;5032478;28;20029;-47
2020/12/14 00:39:50;;;;;;;1.30;0.95;;;20.90;46.00;;;;;;5033559;28;20021;-41
2020/12/14 00:42:16;;;;;;;1.13;0.85;;;20.90;45.90;;;;;;5032343;28;20037;-41
2020/12/14 00:44:41;;;;;;;1.20;0.90;;;20.90;46.00;;;;;;5033437;28;20418;-42
2020/12/14 00:47:07;;;;;;;2.80;0.93;;;20.90;45.90;;;;;;5032894;28;20043;-62
2020/12/14 00:49:33;;;;;;;1.00;0.90;;;20.90;45.90;;;;;;5032571;28;20022;-41
2020/12/14 00:52:04;;;;;;;2.58;0.80;;;20.90;45.80;;;;;;5032878;28;20025;-47
2020/12/14 00:54:32;;;;;;;1.58;0.95;;;20.90;45.80;;;;;;5032601;28;20092;-44
2020/12/14 00:56:57;;;;;;;1.27;0.80;;;20.90;45.80;;;;;;5033248;28;20018;-42
2020/12/14 00:59:23;;;;;;;1.65;1.17;;;20.90;45.80;;;;;;5032519;28;20083;-41
2020/12/14 01:01:52;;;;;;;1.00;0.80;;;20.90;45.80;;;;;;5033251;28;20417;-42
2020/12/14 01:04:19;;;;;;;1.00;0.70;;;20.90;45.90;;;;;;5031645;28;20105;-41
2020/12/14 01:06:45;;;;;;;1.15;0.77;;;20.90;45.80;;;;;;5032799;28;20478;-45
2020/12/14 01:09:10;;;;;;;1.73;1.05;;;20.90;45.80;;;;;;5032618;28;20060;-61
2020/12/14 01:11:36;;;;;;;0.80;0.70;;;20.80;45.70;;;;;;5032803;28;20033;-42
2020/12/14 01:14:02;;;;;;;2.45;1.27;;;20.90;45.60;;;;;;5032699;28;20449;-42
2020/12/14 01:16:27;;;;;;;1.60;1.00;;;20.80;45.60;;;;;;5031770;28;20091;-41
2020/12/14 01:18:53;;;;;;;0.95;0.77;;;20.90;45.60;;;;;;5031191;28;20049;-42
2020/12/14 01:21:24;;;;;;;1.52;0.90;;;20.90;45.60;;;;;;5033093;28;20111;-42
2020/12/14 01:23:50;;;;;;;1.33;0.93;;;20.90;45.50;;;;;;5033784;28;20040;-41
2020/12/14 01:26:16;;;;;;;1.42;1.00;;;20.90;45.40;;;;;;5033209;28;20030;-41
2020/12/14 01:28:41;;;;;;;1.17;0.80;;;20.80;45.30;;;;;;5033943;28;20383;-42
2020/12/14 01:31:07;;;;;;;2.05;0.98;;;20.80;45.30;;;;;;5033694;28;20540;-61
2020/12/14 01:33:33;;;;;;;1.25;0.90;;;20.80;45.40;;;;;;5033087;28;20540;-41
2020/12/14 01:35:59;;;;;;;1.45;0.93;;;20.80;45.40;;;;;;5065524;28;20123;-42
2020/12/14 01:38:25;;;;;;;0.93;0.77;;;20.80;45.30;;;;;;5033214;28;20065;-41
2020/12/14 01:40:52;;;;;;;1.85;0.90;;;20.80;45.30;;;;;;5033672;28;20025;-41
2020/12/14 01:43:18;;;;;;;1.70;1.10;;;20.80;45.30;;;;;;5032756;28;20057;-41
2020/12/14 01:45:43;;;;;;;1.17;0.80;;;20.80;45.30;;;;;;5033734;28;20068;-41
2020/12/14 01:48:12;;;;;;;1.65;1.00;;;20.80;45.30;;;;;;5032978;28;20029;-59
2020/12/14 01:50:38;;;;;;;1.38;0.80;;;20.80;45.30;;;;;;5064439;28;20017;-42
2020/12/14 01:53:06;;;;;;;1.20;0.80;;;20.80;45.30;;;;;;5032973;28;20493;-43
2020/12/14 01:55:38;;;;;;;2.28;1.20;;;20.80;45.30;;;;;;5032532;28;20029;-41
2020/12/14 01:58:04;;;;;;;1.33;0.80;;;20.80;45.20;;;;;;5033112;28;20049;-44
2020/12/14 02:00:30;;;;;;;1.25;0.80;;;20.80;45.20;;;;;;5033201;28;20056;-42
2020/12/14 02:02:55;;;;;;;1.35;0.95;;;20.80;45.20;;;;;;5033496;28;20075;-43
2020/12/14 02:05:21;;;;;;;1.33;0.90;;;20.80;45.20;;;;;;5032535;28;20044;-41
2020/12/14 02:07:47;;;;;;;2.28;1.05;;;20.80;45.20;;;;;;5033036;28;20060;-42
2020/12/14 02:10:13;;;;;;;0.90;0.73;;;20.80;45.20;;;;;;5032326;28;20021;-45
2020/12/14 02:12:39;;;;;;;1.27;0.90;;;20.70;45.20;;;;;;5048507;28;20033;-42
2020/12/14 02:15:05;;;;;;;2.17;0.88;;;20.70;45.10;;;;;;5032651;28;20025;-42
2020/12/14 02:17:31;;;;;;;1.38;1.05;;;20.70;45.10;;;;;;5031910;28;20021;-41
2020/12/14 02:19:57;;;;;;;1.40;0.80;;;20.70;45.10;;;;;;5032840;28;20052;-41
2020/12/14 02:22:24;;;;;;;1.83;0.90;;;20.70;45.10;;;;;;5030925;28;20059;-41
2020/12/14 02:25:01;;;;;;;1.20;0.90;;;20.70;45.10;;;;;;5031491;28;20026;-41
2020/12/14 02:27:31;;;;;;;1.80;0.85;;;20.70;45.00;;;;;;5032076;28;20033;-41
2020/12/14 02:29:57;;;;;;;1.58;0.70;;;20.70;45.00;;;;;;5032455;28;20471;-41
2020/12/14 02:32:29;;;;;;;1.08;0.80;;;20.70;45.00;;;;;;5031697;28;20180;-42
2020/12/14 02:34:56;;;;;;;3.33;1.83;;;20.70;45.00;;;;;;5032209;28;20539;-41
2020/12/14 02:37:27;;;;;;;1.88;0.90;;;20.70;45.00;;;;;;5031933;28;20049;-41
2020/12/14 02:39:54;;;;;;;1.45;0.82;;;20.70;45.00;;;;;;5032434;28;20029;-41
2020/12/14 02:42:21;;;;;;;1.23;0.90;;;20.70;45.00;;;;;;5031590;28;20117;-41
2020/12/14 02:44:48;;;;;;;1.67;1.08;;;20.70;45.00;;;;;;5032145;28;20021;-41
2020/12/14 02:47:14;;;;;;;1.17;0.80;;;20.70;45.00;;;;;;5030472;28;20025;-59
2020/12/14 02:49:40;;;;;;;1.08;0.60;;;20.70;45.00;;;;;;5030943;28;20036;-41
2020/12/14 02:52:08;;;;;;;1.38;0.90;;;20.70;45.00;;;;;;5032413;28;20118;-41
2020/12/14 02:54:34;;;;;;;1.67;1.02;;;20.70;44.90;;;;;;5031490;28;20080;-41
2020/12/14 02:57:00;;;;;;;0.93;0.70;;;20.70;44.90;;;;;;5031999;28;20049;-41
2020/12/14 02:59:26;;;;;;;1.15;0.77;;;20.70;44.90;;;;;;5046721;28;20245;-40
2020/12/14 03:01:52;;;;;;;1.13;0.90;;;20.70;44.90;;;;;;5032153;28;20053;-41
2020/12/14 03:04:18;;;;;;;1.27;0.95;;;20.70;44.90;;;;;;5031242;28;20029;-41
2020/12/14 03:06:45;;;;;;;0.57;0.57;;;20.70;44.90;;;;;;5032087;28;20026;-43
2020/12/14 03:09:15;;;;;;;1.20;0.80;;;20.70;44.90;;;;;;5031751;28;20029;-61
2020/12/14 03:11:41;;;;;;;1.20;1.00;;;20.60;44.80;;;;;;5031951;28;20037;-45
2020/12/14 03:14:08;;;;;;;1.75;1.25;;;20.70;44.90;;;;;;5032039;28;20032;-41
2020/12/14 03:16:40;;;;;;;0.82;0.63;;;20.60;44.80;;;;;;5030019;28;20028;-42
2020/12/14 03:19:05;;;;;;;1.23;0.80;;;20.60;44.80;;;;;;5030728;28;20029;-41
2020/12/14 03:21:31;;;;;;;2.22;0.60;;;20.70;44.90;;;;;;5031131;28;20098;-41
2020/12/14 03:23:57;;;;;;;1.10;0.70;;;20.70;44.90;;;;;;5031949;28;20030;-41
2020/12/14 03:26:22;;;;;;;0.93;0.80;;;20.70;44.80;;;;;;5030814;28;20037;-41
2020/12/14 03:28:48;;;;;;;0.90;0.80;;;20.70;44.80;;;;;;5031706;28;20036;-42
2020/12/14 03:31:14;;;;;;;1.42;0.80;;;20.60;44.70;;;;;;5031514;28;20060;-62
2020/12/14 03:33:39;;;;;;;2.45;0.90;;;20.70;44.80;;;;;;5031347;28;20061;-45
2020/12/14 03:36:05;;;;;;;1.85;0.98;;;20.70;44.80;;;;;;5031435;28;20029;-41
2020/12/14 03:38:31;;;;;;;1.33;0.93;;;20.60;44.70;;;;;;5030861;28;20029;-41
2020/12/14 03:41:05;;;;;;;2.40;0.80;;;20.70;44.80;;;;;;5031393;28;20033;-42
2020/12/14 03:43:31;;;;;;;1.58;0.80;;;20.70;44.80;;;;;;5031162;28;20150;-41
2020/12/14 03:45:57;;;;;;;1.20;0.70;;;20.60;44.70;;;;;;5031495;28;20052;-41
2020/12/14 03:48:24;;;;;;;1.05;0.60;;;20.70;44.70;;;;;;5029710;28;20071;-42
2020/12/14 03:50:50;;;;;;;0.80;0.60;;;20.70;44.70;;;;;;5031446;28;20029;-42
2020/12/14 03:53:16;;;;;;;2.05;0.90;;;20.60;44.70;;;;;;5031205;28;20128;-60
2020/12/14 03:55:41;;;;;;;1.15;0.68;;;20.70;44.70;;;;;;5030388;28;20029;-42
2020/12/14 03:58:08;;;;;;;0.98;0.85;;;20.60;44.60;;;;;;5032002;28;20036;-41
2020/12/14 04:00:34;;;;;;;0.70;0.70;;;20.60;44.60;;;;;;5030456;28;20593;-42
2020/12/14 04:03:07;;;;;;;2.33;0.80;;;20.60;44.60;;;;;;5031683;28;20022;-41
2020/12/14 04:05:33;;;;;;;0.70;0.60;;;20.60;44.60;;;;;;5030603;28;20383;-42
2020/12/14 04:07:58;;;;;;;1.63;0.80;;;20.70;44.60;;;;;;5031673;28;20038;-41
2020/12/14 04:10:24;;;;;;;1.15;0.90;;;20.70;44.60;;;;;;5029524;28;20144;-42
2020/12/14 04:12:50;;;;;;;1.10;0.80;;;20.60;44.50;;;;;;5030083;28;20116;-42
2020/12/14 04:15:15;;;;;;;1.45;0.88;;;20.70;44.60;;;;;;5030973;28;20198;-62
2020/12/14 04:17:41;;;;;;;0.70;0.60;;;20.60;44.50;;;;;;5031453;28;20036;-41
2020/12/14 04:20:07;;;;;;;1.15;0.77;;;20.60;44.50;;;;;;5031380;28;20030;-43
2020/12/14 04:22:32;;;;;;;1.58;0.80;;;20.70;44.60;;;;;;5030749;28;20040;-41
2020/12/14 04:24:58;;;;;;;1.85;1.60;;;20.60;44.50;;;;;;5031341;28;20033;-42
2020/12/14 04:27:24;;;;;;;1.80;0.80;;;20.60;44.50;;;;;;5046367;28;20026;-42
2020/12/14 04:29:49;;;;;;;1.15;0.73;;;20.60;44.50;;;;;;5031188;28;20080;-42
2020/12/14 04:32:15;;;;;;;0.90;0.80;;;20.60;44.50;;;;;;5030782;28;20041;-61
2020/12/14 04:34:40;;;;;;;0.98;0.90;;;20.70;44.60;;;;;;5030830;28;20486;-42
2020/12/14 04:37:06;;;;;;;0.80;0.55;;;20.60;44.50;;;;;;5030848;28;20504;-42
2020/12/14 04:39:32;;;;;;;0.90;0.70;;;20.60;44.50;;;;;;5033074;28;20026;-43
2020/12/14 04:41:58;;;;;;;0.60;0.60;;;20.60;44.50;;;;;;5034781;28;20037;-43
2020/12/14 04:44:24;;;;;;;1.08;0.82;;;20.60;44.40;;;;;;5049362;28;20374;-41
2020/12/14 04:46:50;;;;;;;1.38;0.82;;;20.60;44.40;;;;;;5034698;28;20029;-41
2020/12/14 04:49:17;;;;;;;1.23;0.95;;;20.60;44.40;;;;;;5033988;28;20053;-63
2020/12/14 04:51:43;;;;;;;0.80;0.63;;;20.60;44.40;;;;;;5034068;28;20382;-41
2020/12/14 04:54:10;;;;;;;0.82;0.70;;;20.60;44.40;;;;;;5034650;28;20025;-41
2020/12/14 04:56:40;;;;;;;0.77;0.73;;;20.60;44.40;;;;;;5033686;28;20021;-41
2020/12/14 04:59:06;;;;;;;0.60;0.60;;;20.60;44.40;;;;;;5034476;28;20056;-41
2020/12/14 05:01:32;;;;;;;0.95;0.80;;;20.60;44.40;;;;;;5033400;28;20120;-42
2020/12/14 05:03:58;;;;;;;1.88;0.70;;;20.60;44.40;;;;;;5034622;28;20113;-41
2020/12/14 05:06:23;;;;;;;1.63;1.10;;;20.60;44.30;;;;;;5033510;28;20029;-41
2020/12/14 05:08:49;;;;;;;1.02;0.52;;;20.60;44.30;;;;;;5033843;28;20132;-43
2020/12/14 05:11:29;;;;;;;1.10;0.80;;;20.60;44.30;;;;;;5033566;28;20021;-62
2020/12/14 05:14:14;;;;;;;0.88;0.70;;;20.60;44.30;;;;;;5034364;28;20377;-40
2020/12/14 05:16:40;;;;;;;1.00;0.77;;;20.60;44.20;;;;;;5033640;28;20462;-48
2020/12/14 05:19:21;;;;;;;1.83;0.50;;;20.60;44.20;;;;;;5034153;28;20037;-42
2020/12/14 05:21:50;;;;;;;0.93;0.60;;;20.60;44.20;;;;;;5033952;28;20065;-42
2020/12/14 05:24:27;;;;;;;0.93;0.55;;;20.60;44.20;;;;;;5033618;28;20139;-61
2020/12/14 05:26:54;;;;;;;0.73;0.60;;;20.60;44.20;;;;;;5033720;28;20021;-42
2020/12/14 05:29:27;;;;;;;1.40;1.10;;;20.70;44.30;;;;;;5033060;28;20021;-42
2020/12/14 05:32:10;;;;;;;0.90;0.70;;;20.60;44.20;;;;;;5033832;28;20079;-41
2020/12/14 05:34:43;;;;;;;0.68;0.60;;;20.60;44.20;;;;;;5033122;28;20276;-41
2020/12/14 05:37:14;;;;;;;1.15;0.75;;;20.60;44.20;;;;;;5033660;28;20029;-41
2020/12/14 05:39:41;;;;;;;0.98;0.73;;;20.60;44.20;;;;;;5032991;28;20022;-41
2020/12/14 05:42:18;;;;;;;1.20;0.77;;;20.70;44.90;;;;;;5033569;28;20033;-42
2020/12/14 05:44:45;;;;;;;1.48;0.60;;;20.60;44.20;;;;;;5033437;28;20407;-41
2020/12/14 05:47:30;;;;;;;1.13;0.50;;;20.60;44.20;;;;;;5033674;28;20344;-41
2020/12/14 05:49:59;;;;;;;0.80;0.50;;;20.60;44.20;;;;;;5033194;28;20029;-41
2020/12/14 05:52:32;;;;;;;0.65;0.55;;;20.60;44.10;;;;;;5032802;28;20033;-41
2020/12/14 05:55:01;;;;;;;0.82;0.60;;;20.60;44.10;;;;;;5033698;28;20060;-42
2020/12/14 05:57:27;;;;;;;0.65;0.50;;;20.60;44.10;;;;;;5032546;28;20067;-41
2020/12/14 05:59:58;;;;;;;0.93;0.70;;;20.70;44.10;;;;;;5033423;28;20032;-42
2020/12/14 06:02:26;;;;;;;0.77;0.55;;;20.60;44.10;;;;;;5032053;28;20029;-42
2020/12/14 06:04:55;;;;;;;2.22;0.73;;;20.60;44.10;;;;;;5033231;28;20069;-42
2020/12/14 06:07:27;;;;;;;0.90;0.65;;;20.70;44.10;;;;;;5032190;28;20029;-42
2020/12/14 06:10:16;;;;;;;0.88;0.70;;;20.60;44.00;;;;;;5033171;28;20030;-41
2020/12/14 06:12:45;;;;;;;1.60;0.77;;;20.70;44.00;;;;;;5026671;28;20045;-41
2020/12/14 06:15:17;;;;;;;1.80;1.13;;;20.60;44.20;;;;;;5031812;28;20029;-42
2020/12/14 06:17:45;;;;;;;0.70;0.60;;;20.60;44.00;;;;;;5032350;28;20029;-42
2020/12/14 06:20:24;;;;;;;1.45;0.80;;;20.60;44.00;;;;;;5032731;28;20029;-41
2020/12/14 06:22:57;;;;;;;1.20;0.80;;;20.60;43.90;;;;;;5032777;28;20382;-43
2020/12/14 06:25:24;;;;;;;0.80;0.60;;;20.60;43.90;;;;;;5032057;28;20421;-42
2020/12/14 06:27:49;;;;;;;1.00;0.80;;;20.70;44.00;;;;;;5032781;28;20121;-42
2020/12/14 06:30:35;;;;;;;0.80;0.60;;;20.60;43.90;;;;;;5032805;28;20158;-41
2020/12/14 06:33:08;;;;;;;1.13;0.80;;;20.70;43.90;;;;;;5032575;28;20057;-42
2020/12/14 06:35:49;;;;;;;1.27;0.80;;;20.60;43.90;;;;;;5030532;28;20039;-49
2020/12/14 06:38:37;;;;;;;2.28;1.10;;;20.70;44.00;;;;;;5032386;28;20063;-41
2020/12/14 06:41:10;;;;;;;2.83;0.80;;;20.70;43.90;;;;;;5032700;28;20026;-40
2020/12/14 06:43:36;;;;;;;0.75;0.60;;;20.70;43.90;;;;;;5031347;28;20029;-41
2020/12/14 06:46:02;;;;;;;1.05;0.82;;;20.60;43.90;;;;;;5032544;28;20462;-41
2020/12/14 06:48:41;;;;;;;1.02;0.70;;;20.70;43.90;;;;;;5031524;28;20033;-41
2020/12/14 06:51:08;;;;;;;1.10;0.90;;;20.60;44.00;;;;;;5032390;28;20040;-41
2020/12/14 06:53:50;;;;;;;1.05;0.65;;;20.60;44.00;;;;;;5031301;28;20025;-57
2020/12/14 06:56:38;;;;;;;1.35;0.73;;;20.70;44.10;;;;;;5032329;28;20040;-40
2020/12/14 06:59:28;;;;;;;1.35;1.00;;;20.70;44.10;;;;;;5025269;28;20044;-56
2020/12/14 07:02:01;;;;;;;2.42;0.95;;;20.70;44.10;;;;;;5031197;28;20497;-40
2020/12/14 07:04:30;;;;;;;4.50;1.13;;;20.70;44.20;;;;;;5030320;28;20552;-39
2020/12/14 07:06:56;;;;;;;4.18;1.40;;;20.70;44.50;;;;;;5031884;28;20565;-40
2020/12/14 07:09:29;;;;;;;5.38;1.30;;;20.70;44.40;;;;;;5031326;28;20026;-63
2020/12/14 07:12:16;;;;;;;3.05;0.93;;;20.70;44.80;;;;;;5031635;28;20156;-40
2020/12/14 07:14:52;;;;;;;2.58;1.50;;;20.70;45.00;;;;;;5020489;28;20045;-41
2020/12/14 07:17:26;;;;;;;11.15;1.30;;;20.70;45.20;;;;;;5031721;28;20040;-66
2020/12/14 07:19:53;;;;;;;3.42;1.40;;;20.70;45.00;;;;;;5031909;28;20475;-40
2020/12/14 07:22:21;;;;;;;2.10;1.05;;;20.80;45.00;;;;;;5031383;28;20025;-62
2020/12/14 07:25:04;;;;;;;4.15;1.30;;;20.80;45.00;;;;;;5031847;28;20033;-42
2020/12/14 07:27:31;;;;;;;5.75;1.38;;;20.80;45.30;;;;;;5030734;28;20104;-42
2020/12/14 07:30:08;;;;;;;5.20;1.73;;;20.80;45.70;;;;;;5031398;28;20486;-42
2020/12/14 07:32:35;;;;;;;5.60;1.15;;;20.80;45.80;;;;;;5030762;28;20522;-41
2020/12/14 07:35:02;;;;;;;2.33;1.10;;;20.80;45.60;;;;;;5029091;28;20374;-43
2020/12/14 07:37:28;;;;;;;4.65;1.30;;;20.80;45.60;;;;;;5030739;28;20018;-44
2020/12/14 07:39:53;;;;;;;2.30;1.15;;;20.80;45.60;;;;;;5031091;28;20022;-43
2020/12/14 07:42:26;;;;;;;4.10;1.20;;;20.80;45.60;;;;;;5030191;28;20036;-42
2020/12/14 07:45:08;;;;;;;2.45;1.25;;;20.80;45.60;;;;;;5031248;28;20112;-43
2020/12/14 07:47:34;;;;;;;3.47;1.02;;;20.70;45.50;;;;;;5030509;28;20113;-44
2020/12/14 07:50:10;;;;;;;4.43;1.40;;;20.70;45.60;;;;;;5031574;28;20116;-42
2020/12/14 07:52:35;;;;;;;6.25;1.33;;;20.70;45.60;;;;;;5030490;28;20045;-42
2020/12/14 07:55:04;;;;;;;2.42;1.52;;;20.70;45.50;;;;;;5030048;28;20026;-43
2020/12/14 07:57:32;;;;;;;4.00;1.20;;;20.70;45.50;;;;;;5030605;28;20029;-44
2020/12/14 08:00:01;;;;;;;10.98;1.70;;;20.70;45.50;;;;;;5030825;28;20030;-42
2020/12/14 08:02:30;;;;;;;3.50;1.58;;;20.70;45.60;;;;;;5030667;28;20026;-42
2020/12/14 08:05:00;;;;;;;4.75;1.15;;;20.70;45.80;;;;;;5031202;28;20026;-42
2020/12/14 08:07:33;;;;;;;2.45;1.17;;;20.70;45.70;;;;;;5030285;28;20033;-42
2020/12/14 08:10:01;;;;;;;3.63;1.20;;;20.70;45.70;;;;;;5030955;28;20564;-42
2020/12/14 08:12:27;;;;;;;2.30;1.25;;;20.70;45.80;;;;;;5030272;28;20041;-43
2020/12/14 08:14:53;;;;;;;6.53;1.50;;;20.70;45.70;;;;;;5035076;28;20028;-41
2020/12/14 08:17:19;;;;;;;4.28;1.23;;;20.70;45.70;;;;;;5035131;28;20032;-44
2020/12/14 08:19:45;;;;;;;3.17;1.30;;;20.70;45.70;;;;;;5034198;28;20030;-42
2020/12/14 08:22:12;;;;;;;3.25;1.20;;;20.70;45.70;;;;;;5035033;28;20041;-42
2020/12/14 08:24:39;;;;;;;4.95;1.73;;;20.70;45.70;;;;;;5034216;28;20040;-41
2020/12/14 08:27:07;;;;;;;5.25;1.58;;;20.70;45.70;;;;;;5034897;28;20036;-42
2020/12/14 08:29:35;;;;;;;5.65;1.88;;;20.70;45.70;;;;;;5033783;28;20052;-40
2020/12/14 08:32:01;;;;;;;5.50;1.30;;;20.60;46.00;;;;;;5034776;28;20067;-42
2020/12/14 08:34:37;;;;;;;2.53;1.25;;;20.60;45.80;;;;;;5033638;28;20026;-42
2020/12/14 08:37:04;;;;;;;1.70;1.23;;;20.70;46.00;;;;;;5034893;28;20026;-45
2020/12/14 08:39:30;;;;;;;2.50;1.40;;;20.70;46.10;;;;;;5033992;28;20035;-41
2020/12/14 08:42:11;;;;;;;3.60;1.45;;;20.60;46.10;;;;;;5034168;28;20116;-41
2020/12/14 08:44:39;;;;;;;3.80;1.55;;;20.60;46.00;;;;;;5033501;28;20076;-42
2020/12/14 08:47:14;;;;;;;3.08;1.38;;;20.60;46.10;;;;;;5033056;28;20382;-42
2020/12/14 08:49:39;;;;;;;5.22;1.48;;;20.60;46.10;;;;;;5032640;28;20488;-42
2020/12/14 08:52:05;;;;;;;4.18;1.30;;;20.60;46.10;;;;;;5034580;28;20124;-42
2020/12/14 08:54:31;;;;;;;1.85;1.15;;;20.60;46.10;;;;;;5032363;28;20545;-41
2020/12/14 08:56:57;;;;;;;2.75;1.20;;;20.60;46.00;;;;;;5034055;28;20033;-42
2020/12/14 08:59:23;;;;;;;5.40;1.85;;;20.60;46.00;;;;;;5033801;28;20025;-62
2020/12/14 09:02:06;;;;;;;6.20;1.52;;;20.60;46.00;;;;;;5032414;28;20477;-41
2020/12/14 09:04:36;;;;;;;4.63;2.00;;;20.60;45.90;;;;;;5033400;28;20040;-43
2020/12/14 09:07:03;;;;;;;5.60;2.15;;;20.60;46.60;;;;;;5034112;28;20025;-44
2020/12/14 09:09:34;;;;;;;4.80;2.15;;;20.60;46.00;;;;;;5033650;28;20125;-42
2020/12/14 09:12:01;;;;;;;2.50;1.55;;;20.60;45.90;;;;;;5033461;28;20496;-43
2020/12/14 09:14:30;;;;;;;3.22;1.80;;;20.70;45.90;;;;;;5032068;28;20017;-46
2020/12/14 09:17:01;;;;;;;1.92;1.52;;;20.60;45.80;;;;;;5026698;28;20021;-43
2020/12/14 09:19:29;;;;;;;2.00;1.42;;;20.60;45.80;;;;;;5033145;28;20052;-43
2020/12/14 09:21:56;;;;;;;3.42;1.58;;;20.60;45.80;;;;;;5034361;28;20033;-42
2020/12/14 09:24:28;;;;;;;3.58;1.60;;;20.60;45.80;;;;;;5032953;28;20030;-42
2020/12/14 09:27:11;;;;;;;2.67;1.90;;;20.60;45.80;;;;;;5033313;28;20441;-42
2020/12/14 09:29:38;;;;;;;4.22;2.10;;;20.60;45.70;;;;;;5032714;28;20103;-42
2020/12/14 09:32:05;;;;;;;3.08;1.50;;;20.60;45.70;;;;;;5033310;28;20372;-42
2020/12/14 09:34:31;;;;;;;3.22;1.88;;;20.60;45.70;;;;;;5032594;28;20045;-42
2020/12/14 09:36:58;;;;;;;3.78;1.85;;;20.60;45.70;;;;;;5032498;28;20364;-41
2020/12/14 09:39:26;;;;;;;2.65;1.60;;;20.60;45.60;;;;;;5033170;28;20095;-60
2020/12/14 09:41:55;;;;;;;2.60;1.65;;;20.60;45.60;;;;;;5032490;28;20025;-41
2020/12/14 09:44:21;;;;;;;4.88;1.83;;;20.60;45.70;;;;;;5033042;28;20026;-41
2020/12/14 09:46:47;;;;;;;3.53;1.75;;;20.60;45.60;;;;;;5032766;28;20649;-43
2020/12/14 09:49:12;;;;;;;3.30;1.80;;;20.60;45.60;;;;;;5033799;28;20028;-42
2020/12/14 09:51:38;;;;;;;3.97;2.00;;;20.60;45.60;;;;;;5032242;28;20458;-44
2020/12/14 09:54:05;;;;;;;3.53;1.92;;;20.60;45.60;;;;;;5033268;28;20025;-41
2020/12/14 09:56:32;;;;;;;3.17;1.90;;;20.60;45.60;;;;;;5032446;28;20053;-41
2020/12/14 09:58:57;;;;;;;2.80;1.58;;;20.60;45.60;;;;;;5033118;28;20053;-41
2020/12/14 10:01:24;;;;;;;3.22;1.90;;;20.70;45.60;;;;;;5033147;28;20083;-42
2020/12/14 10:03:50;;;;;;;3.17;1.60;;;20.60;45.40;;;;;;5032652;28;20084;-43
2020/12/14 10:06:16;;;;;;;3.53;1.83;;;20.60;45.50;;;;;;5032456;28;20507;-47
2020/12/14 10:08:43;;;;;;;2.08;1.75;;;20.60;45.40;;;;;;5032319;28;20029;-43
2020/12/14 10:11:09;;;;;;;2.67;1.88;;;20.60;45.40;;;;;;5032285;28;20029;-42
2020/12/14 10:13:35;;;;;;;3.58;1.83;;;20.60;45.40;;;;;;5030811;28;20108;-42
2020/12/14 10:16:01;;;;;;;3.03;1.77;;;20.60;45.40;;;;;;5032892;28;20025;-42
2020/12/14 10:18:27;;;;;;;2.47;1.73;;;20.70;45.50;;;;;;5032468;28;20021;-61
2020/12/14 10:20:53;;;;;;;3.22;1.70;;;20.70;45.40;;;;;;5032283;28;20026;-41
2020/12/14 10:23:19;;;;;;;3.70;1.70;;;20.60;45.30;;;;;;5032972;28;20140;-43
2020/12/14 10:25:45;;;;;;;3.72;1.55;;;20.70;45.40;;;;;;5030624;28;20379;-43
2020/12/14 10:28:11;;;;;;;2.38;1.58;;;20.60;45.30;;;;;;5032407;28;20494;-43
2020/12/14 10:30:38;;;;;;;3.25;2.20;;;20.70;45.40;;;;;;5031248;28;20068;-45
2020/12/14 10:33:04;;;;;;;2.47;1.70;;;20.60;45.30;;;;;;5032314;28;20073;-43
2020/12/14 10:35:30;;;;;;;2.97;1.63;;;20.60;45.30;;;;;;5031541;28;20048;-62
2020/12/14 10:37:57;;;;;;;3.00;1.83;;;20.70;45.40;;;;;;5032367;28;20034;-42
2020/12/14 10:40:23;;;;;;;3.75;1.67;;;20.70;45.30;;;;;;5032432;28;20029;-41
2020/12/14 10:42:49;;;;;;;2.92;1.83;;;20.70;45.30;;;;;;5031717;28;20029;-46
2020/12/14 10:45:15;;;;;;;2.88;1.70;;;20.60;45.30;;;;;;5031022;28;20120;-42
2020/12/14 10:47:40;;;;;;;1.98;1.70;;;20.60;45.30;;;;;;5027044;28;20025;-59
2020/12/14 10:50:07;;;;;;;2.13;1.70;;;20.60;45.30;;;;;;5031128;28;20059;-51
2020/12/14 10:52:33;;;;;;;3.67;1.55;;;20.70;45.30;;;;;;5032255;28;20449;-43
2020/12/14 10:54:59;;;;;;;4.45;2.05;;;20.60;45.30;;;;;;5032368;28;20052;-41
2020/12/14 10:57:25;;;;;;;3.20;1.40;;;20.60;45.30;;;;;;5031878;28;20479;-42
2020/12/14 10:59:50;;;;;;;3.35;1.50;;;20.60;45.20;;;;;;5031153;28;20029;-41
2020/12/14 11:02:16;;;;;;;2.85;1.73;;;20.70;45.30;;;;;;5032165;28;20029;-44
2020/12/14 11:04:41;;;;;;;2.10;1.40;;;20.70;45.20;;;;;;5031423;28;20525;-41
2020/12/14 11:07:08;;;;;;;1.63;1.30;;;20.70;45.20;;;;;;5031971;28;20030;-41
2020/12/14 11:09:35;;;;;;;2.40;1.52;;;20.60;45.20;;;;;;5031267;28;20021;-44
2020/12/14 11:12:05;;;;;;;3.53;2.13;;;20.60;45.20;;;;;;5031356;28;20034;-42
2020/12/14 11:14:31;;;;;;;2.92;1.77;;;20.70;45.20;;;;;;5031808;28;20021;-60
2020/12/14 11:16:57;;;;;;;2.15;1.60;;;20.60;45.10;;;;;;5031377;28;20029;-43
2020/12/14 11:19:22;;;;;;;2.75;1.70;;;20.60;45.20;;;;;;5032018;28;20459;-41
2020/12/14 11:21:53;;;;;;;1.98;1.67;;;20.70;45.20;;;;;;5030720;28;20030;-42
2020/12/14 11:24:19;;;;;;;3.40;1.77;;;20.70;45.10;;;;;;5026629;28;20029;-44
2020/12/14 11:26:45;;;;;;;2.67;1.75;;;20.70;45.30;;;;;;5029780;28;20025;-42
2020/12/14 11:29:11;;;;;;;2.00;1.45;;;20.70;45.50;;;;;;5031614;28;20928;-44
2020/12/14 11:31:37;;;;;;;2.60;1.80;;;20.70;45.40;;;;;;5030166;28;20057;-44
2020/12/14 11:34:02;;;;;;;2.65;1.80;;;20.70;45.50;;;;;;5031650;28;20030;-40
2020/12/14 11:36:29;;;;;;;2.83;1.70;;;20.70;45.40;;;;;;5029120;28;20348;-44
2020/12/14 11:38:56;;;;;;;3.38;1.50;;;20.70;45.50;;;;;;5029632;28;20025;-46
2020/12/14 11:41:22;;;;;;;1.40;1.17;;;20.70;45.40;;;;;;5030413;28;20026;-40
2020/12/14 11:43:48;;;;;;;3.83;1.90;;;20.70;45.40;;;;;;5030659;28;20375;-41
2020/12/14 11:46:13;;;;;;;3.20;1.65;;;20.70;45.40;;;;;;5029828;28;20105;-45
2020/12/14 11:48:39;;;;;;;2.55;1.50;;;20.70;45.40;;;;;;5030907;28;20454;-40
2020/12/14 11:51:05;;;;;;;2.05;1.50;;;20.70;45.40;;;;;;5035343;28;20061;-42
2020/12/14 11:53:30;;;;;;;3.55;1.90;;;20.70;45.40;;;;;;5035035;28;20052;-60
2020/12/14 11:55:56;;;;;;;2.70;1.88;;;20.70;45.30;;;;;;5035063;28;20026;-44
2020/12/14 11:58:22;;;;;;;2.38;1.65;;;20.70;45.30;;;;;;5035533;28;20033;-44
2020/12/14 12:00:47;;;;;;;2.85;1.70;;;20.70;45.30;;;;;;5034686;28;20018;-56
2020/12/14 12:03:13;;;;;;;3.00;1.75;;;20.70;45.30;;;;;;5035130;28;20025;-41
2020/12/14 12:05:38;;;;;;;3.03;1.65;;;20.70;45.30;;;;;;5034539;28;20176;-42
2020/12/14 12:08:04;;;;;;;2.03;1.40;;;20.80;45.40;;;;;;5034991;28;20026;-43
2020/12/14 12:10:30;;;;;;;2.17;1.63;;;20.80;45.40;;;;;;5034862;28;20029;-59
2020/12/14 12:12:56;;;;;;;2.30;1.80;;;20.80;45.50;;;;;;5034214;28;20435;-41
2020/12/14 12:15:21;;;;;;;2.28;1.58;;;20.80;45.50;;;;;;5035179;28;20025;-42
2020/12/14 12:17:47;;;;;;;2.83;1.63;;;20.80;45.60;;;;;;5034279;28;20025;-44
2020/12/14 12:20:13;;;;;;;2.33;1.35;;;20.80;45.60;;;;;;5035268;28;20367;-41
2020/12/14 12:22:38;;;;;;;4.13;2.00;;;20.80;45.60;;;;;;5034221;28;20029;-42
2020/12/14 12:25:05;;;;;;;2.00;1.52;;;20.80;45.60;;;;;;5035092;28;20033;-41
2020/12/14 12:27:31;;;;;;;2.60;1.40;;;20.80;45.60;;;;;;5034743;28;20026;-56
2020/12/14 12:29:56;;;;;;;1.92;1.58;;;20.70;45.50;;;;;;5033975;28;20045;-41
2020/12/14 12:32:22;;;;;;;3.40;1.77;;;20.80;45.60;;;;;;5034648;28;20080;-43
2020/12/14 12:34:48;;;;;;;2.28;1.88;;;20.70;45.50;;;;;;5033757;28;20379;-40
2020/12/14 12:37:13;;;;;;;3.03;1.40;;;20.80;45.60;;;;;;5033827;28;20105;-43
2020/12/14 12:39:39;;;;;;;2.28;1.70;;;20.70;45.50;;;;;;5034133;28;20037;-41
2020/12/14 12:42:05;;;;;;;2.45;1.42;;;20.70;45.50;;;;;;5034649;28;20092;-43
2020/12/14 12:44:31;;;;;;;3.13;1.50;;;20.80;45.60;;;;;;5034364;28;20108;-41
2020/12/14 12:46:56;;;;;;;4.15;1.75;;;20.80;45.50;;;;;;5033793;28;20437;-44
2020/12/14 12:49:22;;;;;;;4.03;1.80;;;20.70;45.50;;;;;;5034610;28;20483;-43
2020/12/14 12:51:50;;;;;;;2.50;1.65;;;20.80;45.50;;;;;;5033657;28;20048;-44